Bondville, Illinois
Current Conditions -  °F | °C
As of 12:53 PM on Thursday 30 Oct 2014 (Local Time) from KCMI Reporting Station
Scattered Clouds Scattered Clouds  
Wind Chill: 53°   Ceiling: Unl
Heat Index: 53°   Visibility: 10mi
Dew Point: 35°   Wind: 8mph
Humidity: 50%   Direction: 170°S
Pressure: 30.1"   Gusts: NA
Location:  40.11°N, 88.37°W
Report Text: KCMI 301753Z 17007KT 150V210 10SM SCT120 12/02 A3010 RMK AO2 SLP196 T01170017 10122 21011 58018 $
Loading
Personal Weather Stations






























Interactive Weather Map New forecast layout! Learn more

10-Day Weather Forecast

Advertisements
Track Severe Weather on mobile